Amsterdam, Montana
Current Conditions -  °F | °C
As of 5:03 PM on Tuesday 25 Nov 2014 (Local Time) from KBZN Reporting Station
Light Snow Light Snow  
Wind Chill:   Ceiling: 1000
Heat Index:   Visibility: 0.75mi
Dew Point: -1°   Wind: 3mph
Humidity: 96%   Direction: 190°S
Pressure: 30.11"   Gusts: NA
Location:  45.7517°N, 111.347°W
Report Text: KBZN 260003Z 19003KT 3/4SM -SN BR FEW004 OVC010 00/M01 A3011 RMK AO2 P0000 T00001006
Loading
Personal Weather Stations






























Interactive Weather Map New forecast layout! Learn more

10-Day Weather Forecast

Advertisements
Track Severe Weather on mobile